Time;durP1;ratioP1;P1;durP2;ratioP2;P2;SDS_P1;SDS_P2;PMS_P1;PMS_P2;Temp;Humidity;BMP_temperature;BMP_pressure;BME280_temperature;BME280_humidity;BME280_pressure;Samples;Min_cycle;Max_cycle;Signal;HPM_P1;HPM_P2
2023/11/06 00:02:14;;;;;;;5.82;2.33;;;11.70;73.10;;;;;;5062196;28;20025;-77
2023/11/06 00:04:41;;;;;;;7.88;2.13;;;11.60;73.00;;;;;;5060853;28;20074;-77
2023/11/06 00:07:07;;;;;;;9.43;3.67;;;11.60;73.00;;;;;;5062180;28;20224;-76
2023/11/06 00:09:36;;;;;;;6.20;2.05;;;11.60;73.00;;;;;;5060738;28;20412;-76
2023/11/06 00:12:02;;;;;;;7.47;1.98;;;11.60;73.10;;;;;;5060563;28;20025;-77
2023/11/06 00:14:29;;;;;;;6.75;2.05;;;11.60;73.10;;;;;;5062734;28;20396;-76
2023/11/06 00:16:55;;;;;;;8.73;1.52;;;11.60;73.10;;;;;;5060009;28;20036;-77
2023/11/06 00:19:21;;;;;;;3.05;1.20;;;11.60;73.20;;;;;;5062557;28;20039;-76
2023/11/06 00:21:48;;;;;;;5.38;1.52;;;11.60;73.20;;;;;;5062705;28;20032;-76
2023/11/06 00:24:18;;;;;;;3.47;1.20;;;11.60;73.20;;;;;;5046217;28;20100;-76
2023/11/06 00:26:45;;;;;;;4.20;1.90;;;11.60;73.20;;;;;;5058161;28;20625;-76
2023/11/06 00:29:12;;;;;;;4.82;1.42;;;11.60;73.20;;;;;;5057466;28;20085;-76
2023/11/06 00:31:39;;;;;;;4.78;1.23;;;11.50;73.10;;;;;;5059002;28;20107;-77
2023/11/06 00:34:06;;;;;;;3.08;1.02;;;11.50;73.10;;;;;;5066101;28;20036;-77
2023/11/06 00:36:32;;;;;;;5.15;1.02;;;11.50;73.10;;;;;;5060767;28;20036;-76
2023/11/06 00:38:59;;;;;;;3.83;0.80;;;11.50;73.10;;;;;;5065854;28;20510;-77
2023/11/06 00:41:25;;;;;;;4.10;1.88;;;11.50;73.10;;;;;;5059095;28;20055;-76
2023/11/06 00:43:52;;;;;;;7.65;1.13;;;11.50;73.10;;;;;;5062382;28;20024;-76
2023/11/06 00:46:18;;;;;;;3.38;1.08;;;11.50;73.20;;;;;;5064092;28;20085;-76
2023/11/06 00:48:44;;;;;;;6.32;0.85;;;11.50;73.20;;;;;;5062713;28;20247;-76
2023/11/06 00:51:10;;;;;;;5.35;1.17;;;11.40;73.10;;;;;;5061847;28;20071;-76
2023/11/06 00:53:36;;;;;;;2.78;0.98;;;11.40;73.10;;;;;;5060172;28;20435;-76
2023/11/06 00:56:03;;;;;;;4.75;2.15;;;11.40;73.10;;;;;;5056758;28;20290;-76
2023/11/06 00:58:29;;;;;;;3.15;1.17;;;11.40;73.20;;;;;;5061017;28;20068;-75
2023/11/06 01:00:55;;;;;;;2.47;1.00;;;11.40;73.20;;;;;;5058338;28;20067;-76
2023/11/06 01:03:24;;;;;;;4.95;1.10;;;11.40;73.30;;;;;;5057041;28;20460;-76
2023/11/06 01:05:50;;;;;;;3.22;1.75;;;11.40;73.30;;;;;;5064609;28;20025;-76
2023/11/06 01:08:16;;;;;;;4.65;1.20;;;11.30;73.10;;;;;;5056956;28;20021;-76
2023/11/06 01:10:42;;;;;;;5.25;1.67;;;11.30;73.20;;;;;;5065641;28;20039;-77
2023/11/06 01:13:13;;;;;;;6.00;1.70;;;11.30;73.20;;;;;;5045801;28;20434;-76
2023/11/06 01:15:39;;;;;;;2.95;1.10;;;11.30;73.20;;;;;;5067240;28;20066;-77
2023/11/06 01:18:05;;;;;;;7.78;1.45;;;11.30;73.20;;;;;;5064743;28;20381;-77
2023/11/06 01:20:31;;;;;;;4.78;1.60;;;11.30;73.30;;;;;;5058726;28;20044;-76
2023/11/06 01:22:57;;;;;;;3.33;1.10;;;11.30;73.30;;;;;;5061462;28;20064;-76
2023/11/06 01:25:23;;;;;;;5.43;1.58;;;11.30;73.30;;;;;;5086450;27;20040;-76
2023/11/06 01:27:49;;;;;;;4.57;1.27;;;11.30;73.30;;;;;;5064838;28;20703;-76
2023/11/06 01:30:17;;;;;;;1.90;1.10;;;11.30;73.30;;;;;;5055235;28;20024;-76
2023/11/06 01:32:43;;;;;;;1.58;0.93;;;11.30;73.40;;;;;;5059739;28;20218;-76
2023/11/06 01:35:13;;;;;;;4.88;1.27;;;11.30;73.40;;;;;;5061115;28;20535;-76
2023/11/06 01:37:39;;;;;;;2.95;1.33;;;11.30;73.40;;;;;;5062542;28;20120;-76
2023/11/06 01:40:11;;;;;;;1.88;1.17;;;11.30;73.50;;;;;;5063117;28;20512;-77
2023/11/06 01:42:38;;;;;;;3.67;1.73;;;11.30;73.50;;;;;;5054369;28;20597;-76
2023/11/06 01:45:07;;;;;;;5.60;1.95;;;11.30;73.50;;;;;;5064458;28;20565;-76
2023/11/06 01:47:34;;;;;;;4.47;1.50;;;11.30;73.50;;;;;;5061841;28;20044;-76
2023/11/06 01:50:03;;;;;;;5.25;1.40;;;11.30;73.50;;;;;;5064372;28;20479;-76
2023/11/06 01:52:30;;;;;;;3.80;1.42;;;11.30;73.50;;;;;;5049156;28;20038;-76
2023/11/06 01:54:57;;;;;;;3.50;1.65;;;11.30;73.60;;;;;;5067431;28;20134;-75
2023/11/06 01:57:25;;;;;;;2.78;1.17;;;11.20;73.40;;;;;;5064892;28;20032;-75
2023/11/06 01:59:51;;;;;;;4.55;1.30;;;11.20;73.40;;;;;;5051953;28;20541;-76
2023/11/06 02:02:19;;;;;;;3.95;1.60;;;11.20;73.40;;;;;;5061576;28;20055;-77
2023/11/06 02:04:47;;;;;;;3.60;1.63;;;11.20;73.50;;;;;;5062718;28;20434;-78
2023/11/06 02:07:13;;;;;;;2.70;1.17;;;11.20;73.50;;;;;;5062214;28;20028;-77
2023/11/06 02:09:40;;;;;;;2.63;1.30;;;11.20;73.50;;;;;;5060457;28;20442;-77
2023/11/06 02:12:08;;;;;;;4.10;1.35;;;11.20;73.50;;;;;;5038689;28;20039;-77
2023/11/06 02:14:54;;;;;;;4.32;1.50;;;11.20;73.50;;;;;;5061254;28;20040;-77
2023/11/06 02:17:21;;;;;;;4.55;1.40;;;11.20;73.60;;;;;;5041444;28;20048;-77
2023/11/06 02:19:48;;;;;;;2.83;1.48;;;11.20;74.10;;;;;;5058794;28;20033;-77
2023/11/06 02:22:17;;;;;;;3.15;1.25;;;11.20;73.60;;;;;;5057398;28;20158;-77
2023/11/06 02:24:44;;;;;;;5.10;1.58;;;11.20;73.60;;;;;;5058578;28;20029;-77
2023/11/06 02:27:10;;;;;;;3.33;1.83;;;11.20;73.60;;;;;;5057798;28;20028;-78
2023/11/06 02:29:38;;;;;;;4.57;1.38;;;11.20;73.60;;;;;;5054252;28;20105;-77
2023/11/06 02:32:04;;;;;;;3.75;1.20;;;11.10;73.40;;;;;;5057380;28;20072;-77
2023/11/06 02:34:30;;;;;;;5.05;1.40;;;11.10;73.40;;;;;;5059869;28;20093;-78
2023/11/06 02:36:57;;;;;;;4.90;1.75;;;11.10;73.50;;;;;;5052433;28;20035;-78
2023/11/06 02:39:23;;;;;;;3.55;1.20;;;11.10;73.50;;;;;;5055018;28;20366;-78
2023/11/06 02:41:49;;;;;;;2.42;1.20;;;11.10;73.50;;;;;;5050968;28;20373;-78
2023/11/06 02:44:16;;;;;;;4.75;1.20;;;11.10;73.50;;;;;;5058557;28;20028;-78
2023/11/06 02:46:42;;;;;;;3.88;1.48;;;11.10;73.60;;;;;;5058537;28;20072;-77
2023/11/06 02:49:09;;;;;;;4.32;1.23;;;11.00;73.40;;;;;;5057038;28;20035;-77
2023/11/06 02:51:39;;;;;;;2.03;1.10;;;11.00;73.50;;;;;;5041905;28;20077;-77
2023/11/06 02:54:09;;;;;;;3.85;1.42;;;11.00;73.50;;;;;;5059888;28;20094;-77
2023/11/06 02:56:36;;;;;;;2.45;1.00;;;11.00;73.50;;;;;;5058717;28;20127;-76
2023/11/06 02:59:04;;;;;;;4.95;1.65;;;11.00;73.60;;;;;;5060402;28;20115;-77
2023/11/06 03:01:31;;;;;;;3.05;1.00;;;11.00;73.60;;;;;;5071633;28;20217;-77
2023/11/06 03:03:58;;;;;;;2.47;0.88;;;11.00;73.70;;;;;;5056103;28;20028;-77
2023/11/06 03:06:30;;;;;;;3.53;1.10;;;11.00;73.60;;;;;;5059488;28;20332;-77
2023/11/06 03:08:56;;;;;;;1.58;0.90;;;11.00;73.60;;;;;;5066666;28;20021;-77
2023/11/06 03:11:23;;;;;;;1.50;1.02;;;11.00;73.60;;;;;;5058504;28;20106;-77
2023/11/06 03:13:50;;;;;;;2.20;1.00;;;11.00;73.70;;;;;;5060459;28;20468;-76
2023/11/06 03:16:17;;;;;;;1.92;1.08;;;10.90;73.50;;;;;;5060378;28;20094;-76
2023/11/06 03:18:44;;;;;;;6.20;1.65;;;11.00;73.70;;;;;;5059084;28;20044;-76
2023/11/06 03:21:13;;;;;;;3.03;1.02;;;10.90;74.10;;;;;;5060303;28;20097;-76
2023/11/06 03:23:40;;;;;;;3.90;1.45;;;10.90;73.50;;;;;;5059281;28;20040;-76
2023/11/06 03:26:06;;;;;;;1.90;1.33;;;10.90;73.60;;;;;;5063250;28;20021;-77
2023/11/06 03:28:32;;;;;;;5.97;1.67;;;10.90;73.60;;;;;;5044346;28;20043;-76
2023/11/06 03:30:58;;;;;;;3.65;1.13;;;10.90;73.60;;;;;;5089394;28;20107;-77
2023/11/06 03:33:24;;;;;;;2.25;1.05;;;10.90;73.70;;;;;;5060429;28;20037;-77
2023/11/06 03:35:50;;;;;;;2.22;0.80;;;10.90;73.60;;;;;;5060265;28;20545;-77
2023/11/06 03:38:16;;;;;;;2.35;1.23;;;10.90;73.60;;;;;;5062696;28;20074;-78
2023/11/06 03:40:42;;;;;;;3.17;1.42;;;10.80;73.50;;;;;;5058356;28;20049;-77
2023/11/06 03:43:08;;;;;;;1.77;1.00;;;10.80;73.50;;;;;;5057028;28;20051;-77
2023/11/06 03:45:35;;;;;;;2.17;1.20;;;10.80;73.50;;;;;;5045340;28;20048;-78
2023/11/06 03:48:01;;;;;;;3.47;1.40;;;10.80;73.50;;;;;;5059242;28;20033;-77
2023/11/06 03:50:27;;;;;;;4.75;1.17;;;10.70;73.30;;;;;;5062665;28;20086;-77
2023/11/06 03:52:53;;;;;;;2.22;1.10;;;10.70;73.30;;;;;;5061988;28;20036;-77
2023/11/06 03:55:18;;;;;;;3.13;1.10;;;10.70;73.30;;;;;;5062626;28;20079;-77
2023/11/06 03:57:45;;;;;;;1.75;0.80;;;10.60;73.10;;;;;;5063582;28;20056;-77
2023/11/06 04:00:11;;;;;;;1.95;1.15;;;10.60;73.10;;;;;;5057013;28;20051;-76
2023/11/06 04:02:38;;;;;;;3.15;1.20;;;10.60;73.10;;;;;;5062641;28;20521;-77
2023/11/06 04:05:05;;;;;;;2.67;1.40;;;10.60;73.20;;;;;;5061017;28;20020;-77
2023/11/06 04:07:34;;;;;;;2.15;0.98;;;10.50;73.00;;;;;;5063224;28;20048;-77
2023/11/06 04:10:00;;;;;;;3.70;1.10;;;10.50;73.00;;;;;;5062592;28;20036;-76
2023/11/06 04:12:27;;;;;;;3.22;1.20;;;10.50;73.00;;;;;;5059380;28;20101;-77
2023/11/06 04:14:54;;;;;;;2.95;1.08;;;10.40;72.80;;;;;;5063128;28;20123;-77
2023/11/06 04:17:20;;;;;;;2.08;1.20;;;10.40;72.80;;;;;;5061048;28;20062;-75
2023/11/06 04:19:46;;;;;;;3.33;1.20;;;10.30;72.60;;;;;;5061856;28;20307;-75
2023/11/06 04:22:14;;;;;;;2.10;0.82;;;10.30;72.70;;;;;;5061386;28;20322;-76
2023/11/06 04:24:43;;;;;;;1.70;0.85;;;10.30;72.70;;;;;;5062214;28;20024;-76
2023/11/06 04:27:09;;;;;;;2.63;1.25;;;10.20;72.50;;;;;;5060604;28;20032;-75
2023/11/06 04:29:36;;;;;;;2.45;0.90;;;10.20;72.50;;;;;;5058429;28;20035;-76
2023/11/06 04:32:03;;;;;;;2.97;0.80;;;10.20;72.50;;;;;;5062614;28;20487;-76
2023/11/06 04:34:29;;;;;;;3.63;1.10;;;10.10;72.30;;;;;;5046000;28;20050;-76
2023/11/06 04:36:55;;;;;;;2.75;1.00;;;10.10;72.30;;;;;;5061090;28;20035;-76
2023/11/06 04:39:21;;;;;;;3.03;0.80;;;10.10;72.40;;;;;;5061777;28;20080;-75
2023/11/06 04:41:47;;;;;;;1.05;0.80;;;10.00;72.20;;;;;;5052991;28;20106;-75
2023/11/06 04:44:13;;;;;;;1.55;0.90;;;10.00;72.20;;;;;;5064212;28;20024;-77
2023/11/06 04:46:38;;;;;;;2.00;0.88;;;10.00;72.30;;;;;;5044050;28;20349;-77
2023/11/06 04:49:05;;;;;;;2.05;0.93;;;9.90;72.10;;;;;;5045828;28;20133;-77
2023/11/06 04:51:31;;;;;;;1.98;0.88;;;9.80;71.90;;;;;;5060975;28;20154;-75
2023/11/06 04:53:57;;;;;;;2.15;0.93;;;9.80;71.90;;;;;;5063538;28;20115;-74
2023/11/06 04:56:23;;;;;;;2.95;0.90;;;9.80;71.90;;;;;;5060410;28;20173;-75
2023/11/06 04:58:49;;;;;;;0.73;0.70;;;9.80;71.90;;;;;;5060656;28;20373;-75
2023/11/06 05:01:18;;;;;;;2.28;0.80;;;9.70;71.70;;;;;;5062903;28;20082;-75
2023/11/06 05:03:44;;;;;;;1.40;1.00;;;9.70;71.70;;;;;;5062598;28;20029;-75
2023/11/06 05:06:10;;;;;;;2.13;0.70;;;9.70;71.80;;;;;;5051483;28;20051;-75
2023/11/06 05:08:36;;;;;;;1.50;0.90;;;9.60;71.60;;;;;;5057340;28;20052;-76
2023/11/06 05:11:03;;;;;;;2.13;1.10;;;9.60;71.60;;;;;;5059922;28;20067;-76
2023/11/06 05:13:28;;;;;;;3.15;1.13;;;9.60;71.60;;;;;;5094668;28;20846;-76
2023/11/06 05:15:55;;;;;;;1.33;0.85;;;9.50;71.40;;;;;;5060797;28;20089;-76
2023/11/06 05:18:20;;;;;;;1.95;0.90;;;9.50;71.40;;;;;;5059534;28;20032;-75
2023/11/06 05:20:46;;;;;;;2.60;0.93;;;9.40;71.30;;;;;;5061792;28;20102;-76
2023/11/06 05:23:13;;;;;;;1.42;0.82;;;9.40;71.80;;;;;;5060071;28;20123;-76
2023/11/06 05:25:39;;;;;;;1.45;0.80;;;9.40;71.30;;;;;;5058524;28;20094;-76
2023/11/06 05:28:05;;;;;;;1.10;1.00;;;9.30;71.10;;;;;;5063489;28;20032;-76
2023/11/06 05:30:31;;;;;;;2.60;1.10;;;9.30;71.10;;;;;;5059731;28;20108;-76
2023/11/06 05:32:57;;;;;;;2.28;1.25;;;9.30;71.10;;;;;;5058848;28;20119;-76
2023/11/06 05:35:24;;;;;;;2.42;0.98;;;9.20;71.00;;;;;;5057762;28;20059;-75
2023/11/06 05:37:51;;;;;;;1.77;1.00;;;9.20;71.00;;;;;;5052245;28;20044;-77
2023/11/06 05:40:17;;;;;;;3.00;0.88;;;9.20;71.00;;;;;;5048662;28;20036;-74
2023/11/06 05:42:44;;;;;;;3.33;0.90;;;9.10;70.80;;;;;;5037842;28;20066;-75
2023/11/06 05:45:10;;;;;;;3.47;1.20;;;9.10;70.80;;;;;;5059034;28;20025;-75
2023/11/06 05:47:36;;;;;;;3.55;1.60;;;9.00;70.70;;;;;;5059493;28;20032;-75
2023/11/06 05:50:03;;;;;;;5.72;1.45;;;9.00;70.70;;;;;;5057082;28;20039;-75
2023/11/06 05:52:30;;;;;;;3.53;1.25;;;9.00;70.70;;;;;;5056395;28;20044;-75
2023/11/06 05:54:56;;;;;;;3.20;1.58;;;9.00;70.70;;;;;;5057710;28;20147;-75
2023/11/06 05:57:22;;;;;;;4.05;1.50;;;8.90;70.50;;;;;;5057669;28;20074;-76
2023/11/06 05:59:48;;;;;;;2.67;1.23;;;8.90;70.50;;;;;;5040529;28;20024;-76
2023/11/06 06:02:14;;;;;;;3.13;1.45;;;8.90;70.50;;;;;;5058331;28;20493;-75
2023/11/06 06:04:40;;;;;;;3.97;1.40;;;8.80;70.40;;;;;;5059176;28;20081;-76
2023/11/06 06:07:07;;;;;;;5.28;1.60;;;8.80;70.40;;;;;;5059302;28;20016;-75
2023/11/06 06:09:33;;;;;;;3.75;1.60;;;8.80;70.40;;;;;;5056427;28;20036;-76
2023/11/06 06:12:00;;;;;;;3.03;1.70;;;8.80;70.40;;;;;;5058192;28;20028;-75
2023/11/06 06:14:26;;;;;;;2.75;1.45;;;8.70;70.30;;;;;;5057133;28;20036;-76
2023/11/06 06:16:52;;;;;;;2.80;1.50;;;8.70;70.30;;;;;;5059579;28;20518;-75
2023/11/06 06:19:18;;;;;;;2.95;1.65;;;8.70;70.30;;;;;;5057645;28;20024;-75
2023/11/06 06:21:45;;;;;;;4.28;1.52;;;8.70;70.30;;;;;;5041571;28;20036;-76
2023/11/06 06:24:12;;;;;;;3.03;1.60;;;8.60;70.10;;;;;;5039980;28;20024;-76
2023/11/06 06:26:38;;;;;;;4.97;2.47;;;8.60;70.10;;;;;;5056369;28;20040;-77
2023/11/06 06:29:04;;;;;;;2.10;1.63;;;8.50;70.00;;;;;;5053547;28;20428;-77
2023/11/06 06:31:30;;;;;;;3.22;1.50;;;8.50;70.00;;;;;;5058480;28;20027;-77
2023/11/06 06:33:56;;;;;;;4.80;1.80;;;8.50;70.00;;;;;;5060138;28;20024;-76
2023/11/06 06:36:23;;;;;;;3.85;1.90;;;8.50;70.10;;;;;;5051010;28;20467;-76
2023/11/06 06:38:51;;;;;;;4.22;1.75;;;8.50;70.00;;;;;;5082182;28;20100;-77
2023/11/06 06:41:17;;;;;;;4.57;1.65;;;8.40;69.80;;;;;;5041413;28;20183;-78
2023/11/06 06:43:43;;;;;;;3.88;1.90;;;8.40;69.90;;;;;;5053719;28;20109;-77
2023/11/06 06:46:10;;;;;;;3.75;1.65;;;8.40;70.00;;;;;;5057362;28;20024;-76
2023/11/06 06:48:36;;;;;;;6.30;2.22;;;8.40;70.10;;;;;;5054906;28;20036;-76
2023/11/06 06:51:02;;;;;;;3.20;1.98;;;8.40;70.10;;;;;;5054903;28;20033;-77
2023/11/06 06:53:28;;;;;;;5.53;2.35;;;8.40;70.10;;;;;;5055232;28;20056;-77
2023/11/06 06:55:54;;;;;;;5.80;2.03;;;8.40;70.10;;;;;;5054589;28;20127;-77
2023/11/06 06:58:21;;;;;;;4.38;2.33;;;8.40;70.10;;;;;;5057668;28;20063;-77
2023/11/06 07:00:47;;;;;;;9.18;2.10;;;8.40;70.10;;;;;;5054530;28;20032;-78
2023/11/06 07:03:14;;;;;;;12.10;3.20;;;8.30;70.00;;;;;;5061215;28;20024;-77
2023/11/06 07:05:41;;;;;;;6.80;2.50;;;8.30;70.00;;;;;;5057179;28;20071;-77
2023/11/06 07:08:07;;;;;;;8.45;3.08;;;8.30;70.10;;;;;;5060489;28;20461;-78
2023/11/06 07:10:33;;;;;;;12.43;3.05;;;8.30;70.20;;;;;;5060775;28;20036;-88
2023/11/06 07:13:00;;;;;;;5.28;2.42;;;8.30;70.20;;;;;;5058807;28;20468;-81
2023/11/06 07:15:28;;;;;;;9.10;3.10;;;8.30;70.20;;;;;;5063985;28;20032;-81
2023/11/06 07:17:56;;;;;;;7.40;3.13;;;8.30;70.20;;;;;;5057957;28;20434;-79
2023/11/06 07:20:23;;;;;;;6.80;3.10;;;8.30;70.30;;;;;;5064924;28;20028;-79
2023/11/06 07:22:49;;;;;;;12.02;3.22;;;8.30;70.40;;;;;;5061546;28;20041;-79
2023/11/06 07:25:16;;;;;;;9.57;2.65;;;8.20;70.30;;;;;;5065363;28;20049;-78
2023/11/06 07:27:43;;;;;;;8.20;2.92;;;8.20;70.20;;;;;;5058610;28;20278;-79
2023/11/06 07:30:11;;;;;;;6.15;3.45;;;8.20;70.20;;;;;;5052990;28;20497;-79
2023/11/06 07:32:37;;;;;;;4.65;3.00;;;8.20;70.30;;;;;;5055541;28;20029;-78
2023/11/06 07:35:04;;;;;;;7.78;3.85;;;8.20;70.30;;;;;;5061059;28;20027;-78
2023/11/06 07:37:30;;;;;;;5.22;2.70;;;8.20;70.30;;;;;;5060203;28;20067;-79
2023/11/06 07:39:57;;;;;;;6.75;3.28;;;8.10;70.10;;;;;;5056889;28;20342;-78
2023/11/06 07:42:23;;;;;;;5.95;3.03;;;8.20;70.30;;;;;;5070330;28;20028;-78
2023/11/06 07:44:51;;;;;;;7.88;3.42;;;8.20;70.30;;;;;;5059898;28;20028;-79
2023/11/06 07:47:17;;;;;;;5.53;2.85;;;8.10;70.10;;;;;;5057575;28;20032;-78
2023/11/06 07:49:44;;;;;;;7.72;3.38;;;8.10;70.10;;;;;;5056775;28;20041;-79
2023/11/06 07:52:10;;;;;;;8.20;4.13;;;8.20;70.30;;;;;;5057434;28;20094;-79
2023/11/06 07:54:40;;;;;;;5.05;3.25;;;8.10;70.10;;;;;;5058126;28;20063;-79
2023/11/06 07:57:09;;;;;;;5.97;3.78;;;8.10;70.10;;;;;;5064918;28;20071;-79
2023/11/06 07:59:42;;;;;;;7.22;4.05;;;8.20;70.30;;;;;;5058473;28;20033;-79
2023/11/06 08:02:12;;;;;;;6.50;4.47;;;8.10;70.10;;;;;;5061581;28;20580;-78
2023/11/06 08:04:39;;;;;;;6.93;3.65;;;8.20;70.30;;;;;;5058860;28;20857;-78
2023/11/06 08:07:06;;;;;;;4.50;3.33;;;8.10;70.10;;;;;;5058598;28;20024;-78
2023/11/06 08:09:33;;;;;;;7.03;3.80;;;8.20;70.30;;;;;;5057788;28;20524;-78
2023/11/06 08:12:00;;;;;;;5.53;3.83;;;8.20;70.30;;;;;;5058932;28;20041;-78
2023/11/06 08:14:27;;;;;;;6.72;4.00;;;8.20;70.30;;;;;;5061510;28;20045;-78
2023/11/06 08:16:56;;;;;;;8.00;4.18;;;8.20;70.30;;;;;;5059815;28;20114;-77
2023/11/06 08:19:22;;;;;;;7.50;3.53;;;8.20;70.20;;;;;;5056513;28;20021;-78
2023/11/06 08:21:48;;;;;;;5.07;3.78;;;8.20;70.20;;;;;;5058054;28;20863;-77
2023/11/06 08:24:15;;;;;;;7.55;4.95;;;8.30;70.30;;;;;;5056654;28;20093;-78
2023/11/06 08:26:43;;;;;;;6.85;4.15;;;8.30;70.30;;;;;;5057802;28;20127;-77
2023/11/06 08:29:10;;;;;;;6.63;3.83;;;8.30;70.30;;;;;;5049551;28;20040;-78
2023/11/06 08:31:36;;;;;;;5.05;3.47;;;8.30;70.30;;;;;;5057918;28;20028;-78
2023/11/06 08:34:04;;;;;;;8.55;3.95;;;8.30;70.30;;;;;;5041597;28;20032;-79
2023/11/06 08:36:30;;;;;;;7.10;4.53;;;8.30;70.40;;;;;;5056215;28;20048;-79
2023/11/06 08:38:57;;;;;;;5.95;3.80;;;8.40;70.60;;;;;;5059626;28;20075;-79
2023/11/06 08:41:24;;;;;;;7.45;4.00;;;8.40;70.60;;;;;;5047449;28;20037;-79
2023/11/06 08:43:51;;;;;;;8.50;3.67;;;8.40;70.50;;;;;;5057085;28;20619;-79
2023/11/06 08:46:20;;;;;;;4.80;3.17;;;8.50;70.70;;;;;;5055073;28;20090;-79
2023/11/06 08:48:46;;;;;;;6.95;3.63;;;8.40;70.50;;;;;;5056212;28;20037;-79
2023/11/06 08:51:13;;;;;;;3.95;3.15;;;8.50;70.70;;;;;;5056873;28;20029;-79
2023/11/06 08:53:39;;;;;;;6.55;4.10;;;8.50;70.70;;;;;;5057173;28;20250;-79
2023/11/06 08:56:05;;;;;;;5.88;3.40;;;8.50;70.70;;;;;;5055988;28;20032;-79
2023/11/06 08:58:31;;;;;;;6.88;3.60;;;8.60;70.90;;;;;;5056504;28;20044;-79
2023/11/06 09:01:00;;;;;;;5.72;3.88;;;8.50;70.70;;;;;;5050935;28;20401;-79
2023/11/06 09:03:27;;;;;;;5.82;3.65;;;8.50;70.70;;;;;;5057486;28;20037;-78
2023/11/06 09:05:53;;;;;;;5.65;3.40;;;8.60;70.90;;;;;;5051434;28;20396;-79
2023/11/06 09:08:20;;;;;;;6.03;4.43;;;8.60;70.90;;;;;;5055517;28;20048;-78
2023/11/06 09:10:46;;;;;;;5.15;3.28;;;8.70;71.10;;;;;;5055857;28;20059;-79
2023/11/06 09:13:13;;;;;;;5.80;3.67;;;8.70;71.10;;;;;;5056711;28;20032;-78
2023/11/06 09:15:40;;;;;;;5.22;3.33;;;8.60;70.90;;;;;;5054979;28;20098;-78
2023/11/06 09:18:07;;;;;;;8.07;2.95;;;8.70;71.20;;;;;;5058330;28;20111;-78
2023/11/06 09:20:33;;;;;;;5.78;2.97;;;8.70;71.20;;;;;;5054480;28;20337;-79
2023/11/06 09:23:00;;;;;;;4.45;3.15;;;8.70;71.20;;;;;;5060395;28;20333;-79
2023/11/06 09:25:27;;;;;;;5.63;2.80;;;8.70;71.30;;;;;;5057799;28;20349;-79
2023/11/06 09:27:55;;;;;;;6.32;2.53;;;8.80;71.40;;;;;;5053819;28;20121;-78
2023/11/06 09:30:24;;;;;;;6.90;2.08;;;8.80;71.50;;;;;;5061840;28;20036;-79
2023/11/06 09:32:51;;;;;;;6.90;2.03;;;8.90;71.70;;;;;;5057052;28;20317;-78
2023/11/06 09:35:19;;;;;;;4.72;2.00;;;8.90;71.80;;;;;;5055068;28;20131;-79
2023/11/06 09:37:49;;;;;;;5.82;2.03;;;8.90;71.80;;;;;;5054838;28;20101;-79
2023/11/06 09:40:21;;;;;;;6.57;2.08;;;9.00;72.00;;;;;;5037718;28;20073;-78
2023/11/06 09:42:48;;;;;;;5.33;2.57;;;9.10;72.10;;;;;;5050502;28;20085;-78
2023/11/06 09:45:15;;;;;;;6.53;2.00;;;9.10;72.10;;;;;;5055039;28;20292;-78
2023/11/06 09:47:50;;;;;;;8.52;2.05;;;9.20;72.30;;;;;;5056891;28;20096;-77
2023/11/06 09:50:22;;;;;;;5.93;2.28;;;9.20;72.40;;;;;;5058286;28;20143;-78
2023/11/06 09:52:50;;;;;;;7.32;2.00;;;9.30;72.60;;;;;;5058225;28;21064;-78
2023/11/06 09:55:20;;;;;;;5.25;1.60;;;9.40;72.80;;;;;;5061465;28;20032;-78
2023/11/06 09:57:51;;;;;;;5.05;1.58;;;9.50;72.90;;;;;;5056329;28;20083;-78
2023/11/06 10:00:18;;;;;;;4.88;1.80;;;9.50;72.90;;;;;;5051643;28;20028;-77
2023/11/06 10:02:44;;;;;;;4.28;1.48;;;9.60;73.10;;;;;;5057020;28;20072;-78
2023/11/06 10:05:13;;;;;;;5.40;1.63;;;9.70;73.40;;;;;;5055436;28;20029;-78
2023/11/06 10:07:43;;;;;;;6.22;1.92;;;9.70;73.40;;;;;;5059908;28;20496;-78
2023/11/06 10:10:14;;;;;;;6.38;1.95;;;9.70;73.50;;;;;;5062903;28;20243;-78
2023/11/06 10:12:41;;;;;;;6.22;1.80;;;9.80;73.70;;;;;;5054521;28;20324;-78
2023/11/06 10:15:11;;;;;;;2.38;1.30;;;9.80;73.70;;;;;;5057631;28;20032;-78
2023/11/06 10:17:39;;;;;;;2.08;1.20;;;9.90;73.90;;;;;;5059223;28;20492;-77
2023/11/06 10:20:14;;;;;;;5.07;1.35;;;10.00;74.10;;;;;;5067384;28;20055;-78
2023/11/06 10:22:56;;;;;;;6.47;1.65;;;10.00;74.20;;;;;;5058995;28;20044;-78
2023/11/06 10:25:29;;;;;;;5.38;1.67;;;10.10;74.40;;;;;;5056018;28;20070;-77
2023/11/06 10:27:56;;;;;;;5.85;2.00;;;10.10;74.30;;;;;;5062202;28;20519;-77
2023/11/06 10:30:29;;;;;;;9.70;2.65;;;10.10;74.30;;;;;;5040726;28;20044;-78
2023/11/06 10:33:12;;;;;;;4.35;1.40;;;10.20;74.60;;;;;;5057540;28;20037;-78
2023/11/06 10:35:39;;;;;;;6.25;1.75;;;10.30;74.80;;;;;;5057597;28;20051;-78
2023/11/06 10:38:06;;;;;;;5.13;2.10;;;10.40;74.90;;;;;;5054755;28;20043;-78
2023/11/06 10:40:32;;;;;;;8.50;1.70;;;10.40;75.00;;;;;;5035992;28;20057;-78
2023/11/06 10:43:03;;;;;;;5.55;1.58;;;10.50;75.10;;;;;;5051803;28;20028;-77
2023/11/06 10:45:33;;;;;;;8.38;2.00;;;10.60;75.30;;;;;;5060237;28;20464;-78
2023/11/06 10:48:12;;;;;;;6.38;1.85;;;10.60;75.20;;;;;;5057857;28;20049;-77
2023/11/06 10:50:39;;;;;;;4.75;1.33;;;10.70;75.40;;;;;;5058625;28;20231;-78
2023/11/06 10:53:06;;;;;;;8.30;2.10;;;10.70;75.40;;;;;;5055596;28;20063;-78
2023/11/06 10:55:34;;;;;;;5.68;1.27;;;10.80;75.60;;;;;;5055985;28;20038;-78
2023/11/06 10:58:02;;;;;;;7.82;1.95;;;10.80;75.70;;;;;;5058810;28;20094;-78
2023/11/06 11:00:31;;;;;;;7.00;1.40;;;10.80;75.70;;;;;;5053147;28;20123;-78
2023/11/06 11:02:58;;;;;;;10.70;2.00;;;10.80;75.80;;;;;;5032343;28;20552;-78
2023/11/06 11:05:30;;;;;;;4.75;1.27;;;10.90;76.00;;;;;;5054310;28;20036;-78
2023/11/06 11:07:58;;;;;;;5.28;1.77;;;11.00;76.20;;;;;;5053478;28;20246;-78
2023/11/06 11:10:29;;;;;;;9.25;1.73;;;11.20;76.40;;;;;;5055613;28;20407;-77
2023/11/06 11:13:02;;;;;;;5.57;1.63;;;11.20;76.30;;;;;;5053749;28;20028;-78
2023/11/06 11:15:31;;;;;;;8.75;1.58;;;11.30;76.90;;;;;;5053499;28;20714;-78
2023/11/06 11:18:04;;;;;;;9.48;2.50;;;11.50;76.60;;;;;;5052777;28;20094;-77
2023/11/06 11:20:51;;;;;;;4.70;1.00;;;11.60;76.70;;;;;;5055577;28;20064;-78
2023/11/06 11:23:18;;;;;;;6.57;1.75;;;11.80;77.10;;;;;;5036975;28;20033;-79
2023/11/06 11:25:59;;;;;;;4.30;1.48;;;11.90;76.90;;;;;;5056416;28;20037;-78
2023/11/06 11:28:26;;;;;;;10.35;2.30;;;12.10;77.10;;;;;;5052773;28;20040;-78
2023/11/06 11:30:54;;;;;;;8.57;3.63;;;12.20;76.90;;;;;;5055566;28;20114;-78
2023/11/06 11:33:54;;;;;;;6.57;1.30;;;12.30;76.80;;;;;;5053350;28;20104;-79
2023/11/06 11:36:31;;;;;;;5.82;1.60;;;12.50;77.00;;;;;;5055550;28;20037;-78
2023/11/06 11:39:00;;;;;;;4.10;1.30;;;12.60;76.90;;;;;;5054469;28;20495;-78
2023/11/06 11:41:26;;;;;;;3.90;1.20;;;12.60;76.70;;;;;;5052758;28;20043;-78
2023/11/06 11:44:04;;;;;;;3.17;0.98;;;12.70;76.70;;;;;;5057642;28;20131;-79
2023/11/06 11:46:48;;;;;;;4.72;1.17;;;12.70;76.70;;;;;;5056901;28;20040;-78
2023/11/06 11:49:36;;;;;;;5.63;1.00;;;12.70;76.70;;;;;;5055746;28;20085;-78
2023/11/06 11:52:03;;;;;;;1.42;0.70;;;12.70;76.60;;;;;;5066303;28;20435;-79
2023/11/06 11:54:31;;;;;;;6.70;1.05;;;12.70;76.50;;;;;;5048611;28;20044;-78
2023/11/06 11:57:02;;;;;;;6.45;2.42;;;12.70;76.40;;;;;;5057479;28;20048;-78
2023/11/06 11:59:36;;;;;;;3.92;1.10;;;12.70;76.40;;;;;;5057047;28;20028;-77
2023/11/06 12:02:08;;;;;;;4.10;0.82;;;12.60;76.80;;;;;;5054826;28;20039;-78
2023/11/06 12:04:34;;;;;;;5.22;1.65;;;12.60;76.30;;;;;;5056920;28;20060;-78
2023/11/06 12:07:02;;;;;;;4.95;0.93;;;12.60;76.30;;;;;;5060916;28;20036;-78
2023/11/06 12:09:43;;;;;;;3.28;1.15;;;12.60;76.30;;;;;;5056732;28;20087;-78
2023/11/06 12:12:10;;;;;;;4.80;1.88;;;12.60;76.30;;;;;;5061013;28;20028;-80
2023/11/06 12:14:40;;;;;;;4.55;1.25;;;12.50;76.10;;;;;;5059147;28;20036;-78
2023/11/06 12:17:09;;;;;;;5.97;1.23;;;12.60;76.70;;;;;;5057223;28;20690;-77
2023/11/06 12:19:39;;;;;;;5.75;1.30;;;12.60;76.10;;;;;;5058258;28;20029;-77
2023/11/06 12:22:05;;;;;;;3.75;1.30;;;12.60;76.00;;;;;;5056378;28;20032;-77
2023/11/06 12:24:44;;;;;;;4.22;1.02;;;12.60;75.90;;;;;;5056610;28;20071;-77
2023/11/06 12:27:11;;;;;;;5.00;1.38;;;12.70;76.00;;;;;;5055977;28;20036;-77
2023/11/06 12:29:39;;;;;;;4.70;1.17;;;12.70;75.90;;;;;;5051572;28;20782;-77
2023/11/06 12:32:20;;;;;;;5.40;1.40;;;12.80;75.90;;;;;;5056840;28;20424;-77
2023/11/06 12:34:46;;;;;;;4.32;1.08;;;12.80;75.70;;;;;;5056855;28;20325;-79
2023/11/06 12:37:15;;;;;;;5.88;1.30;;;12.80;75.60;;;;;;5037007;28;20040;-79
2023/11/06 12:39:41;;;;;;;5.10;1.00;;;12.80;75.50;;;;;;5053591;28;20321;-79
2023/11/06 12:42:08;;;;;;;5.63;1.00;;;12.90;75.60;;;;;;5051712;28;20047;-79
2023/11/06 12:44:39;;;;;;;6.68;1.90;;;12.90;75.40;;;;;;5055975;28;20416;-79
2023/11/06 12:47:13;;;;;;;7.00;1.27;;;13.00;75.50;;;;;;5058037;28;20106;-78
2023/11/06 12:49:48;;;;;;;4.47;1.30;;;13.00;75.30;;;;;;5046380;28;20335;-78
2023/11/06 12:52:19;;;;;;;3.83;1.23;;;13.00;75.10;;;;;;5059187;28;20059;-79
2023/11/06 12:54:47;;;;;;;4.93;1.00;;;13.10;75.20;;;;;;5058544;28;20036;-79